Time;durP1;ratioP1;P1;durP2;ratioP2;P2;SDS_P1;SDS_P2;PMS_P1;PMS_P2;Temp;Humidity;BMP_temperature;BMP_pressure;BME280_temperature;BME280_humidity;BME280_pressure;Samples;Min_cycle;Max_cycle;Signal;HPM_P1;HPM_P2
2021/07/20 00:00:00;;;;;;;0.00;0.00;;;;;;;24.74;52.56;98170.69;5013498;28;20033;-75
2021/07/20 00:02:36;;;;;;;0.10;0.10;;;;;;;24.68;52.46;98181.28;5011735;28;20477;-76
2021/07/20 00:05:04;;;;;;;0.00;0.00;;;;;;;24.62;52.59;98180.06;5013351;28;20040;-73
2021/07/20 00:07:29;;;;;;;0.00;0.00;;;;;;;24.57;52.61;98181.25;5013119;28;20500;-74
2021/07/20 00:09:55;;;;;;;0.00;0.00;;;;;;;24.52;52.81;98178.13;5012954;28;20042;-73
2021/07/20 00:12:20;;;;;;;0.08;0.08;;;;;;;24.46;53.06;98174.97;5012773;28;20021;-74
2021/07/20 00:14:45;;;;;;;0.00;0.00;;;;;;;24.43;53.01;98171.09;5011855;28;20040;-73
2021/07/20 00:17:11;;;;;;;0.10;0.10;;;;;;;24.42;53.03;98166.00;5012661;28;20100;-75
2021/07/20 00:19:36;;;;;;;0.03;0.03;;;;;;;24.40;53.23;98163.69;5012862;28;20038;-75
2021/07/20 00:22:02;;;;;;;0.10;0.10;;;;;;;24.38;53.20;98167.97;5013103;28;20029;-75
2021/07/20 00:24:27;;;;;;;0.00;0.00;;;;;;;24.37;53.19;98171.88;4970329;28;1220194;-74
2021/07/20 00:26:53;;;;;;;0.10;0.10;;;;;;;24.37;53.39;98161.72;5014566;28;20216;-73
2021/07/20 00:29:18;;;;;;;0.10;0.10;;;;;;;24.33;53.39;98160.16;5013923;28;20030;-74
2021/07/20 00:31:44;;;;;;;0.10;0.10;;;;;;;24.32;53.17;98167.56;5014109;28;20096;-73
2021/07/20 00:34:09;;;;;;;0.10;0.10;;;;;;;24.29;53.28;98169.13;5013989;28;20022;-73
2021/07/20 00:36:35;;;;;;;0.10;0.10;;;;;;;24.26;53.00;98163.66;5013864;28;20022;-75
2021/07/20 00:39:00;;;;;;;0.10;0.10;;;;;;;24.20;53.25;98168.72;5013903;28;20473;-74
2021/07/20 00:41:25;;;;;;;0.00;0.00;;;;;;;24.17;53.04;98174.19;5013770;28;20034;-74
2021/07/20 00:43:51;;;;;;;0.00;0.00;;;;;;;24.12;53.45;98169.88;5014254;28;20041;-74
2021/07/20 00:46:16;;;;;;;0.10;0.10;;;;;;;24.03;53.57;98158.56;5013368;28;20401;-74
2021/07/20 00:48:42;;;;;;;0.03;0.03;;;;;;;24.00;53.68;98164.81;5013809;28;20529;-74
2021/07/20 00:51:08;;;;;;;0.10;0.10;;;;;;;24.01;54.00;98169.09;5012463;28;20076;-74
2021/07/20 00:53:33;;;;;;;0.10;0.10;;;;;;;23.98;54.10;98157.00;5013218;28;20464;-75
2021/07/20 00:56:00;;;;;;;0.00;0.00;;;;;;;23.97;53.66;98161.69;5013677;28;20030;-74
2021/07/20 00:58:26;;;;;;;0.10;0.10;;;;;;;23.95;53.94;98158.56;5013409;28;20465;-74
2021/07/20 01:00:52;;;;;;;0.00;0.00;;;;;;;23.91;53.81;98157.75;5013891;28;20042;-73
2021/07/20 01:03:18;;;;;;;0.08;0.08;;;;;;;23.89;53.59;98151.91;5013336;28;20030;-74
2021/07/20 01:05:44;;;;;;;0.10;0.10;;;;;;;23.87;53.61;98154.22;5013486;28;20029;-75
2021/07/20 01:08:10;;;;;;;0.10;0.10;;;;;;;23.83;53.74;98153.44;5013413;28;20117;-76
2021/07/20 01:10:39;;;;;;;0.10;0.10;;;;;;;23.82;53.51;98157.34;5013428;28;20084;-74
2021/07/20 01:13:06;;;;;;;0.00;0.00;;;;;;;23.73;53.27;98156.91;5013469;28;20105;-75
2021/07/20 01:15:32;;;;;;;0.00;0.00;;;;;;;23.66;53.51;98158.47;5013174;28;20116;-75
2021/07/20 01:17:59;;;;;;;0.10;0.10;;;;;;;23.63;53.43;98163.91;5013221;28;20174;-75
2021/07/20 01:20:27;;;;;;;0.00;0.00;;;;;;;23.60;53.21;98159.22;5012749;28;20069;-75
2021/07/20 01:23:20;;;;;;;0.00;0.00;;;;;;;23.55;53.26;98181.44;5013190;28;20544;-75
2021/07/20 01:25:46;;;;;;;0.00;0.00;;;;;;;23.50;53.24;98172.44;5013166;28;20054;-75
2021/07/20 01:28:18;;;;;;;0.03;0.03;;;;;;;23.46;53.47;98173.59;5013139;28;20477;-75
2021/07/20 01:30:47;;;;;;;0.00;0.00;;;;;;;23.41;53.29;98179.41;5013071;28;20033;-75
2021/07/20 01:33:14;;;;;;;0.00;0.00;;;;;;;23.36;53.33;98186.03;5012731;28;20545;-75
2021/07/20 01:35:42;;;;;;;0.10;0.10;;;;;;;23.34;53.13;98183.69;5013072;28;20026;-78
2021/07/20 01:38:09;;;;;;;0.00;0.00;;;;;;;23.32;53.34;98186.00;5011858;28;20029;-76
2021/07/20 01:40:37;;;;;;;0.08;0.08;;;;;;;23.26;53.44;98181.31;5011859;28;20034;-75
2021/07/20 01:43:04;;;;;;;;;;;;;;;23.29;53.32;98189.50;5013600;28;20025;-76
2021/07/20 01:45:32;;;;;;;0.10;0.10;;;;;;;23.27;53.40;98196.53;5044442;28;19909;-75
2021/07/20 01:48:00;;;;;;;0.10;0.10;;;;;;;23.26;53.69;98194.94;5013077;28;20501;-75
2021/07/20 01:50:26;;;;;;;0.10;0.10;;;;;;;23.23;53.76;98193.78;5012644;28;20029;-75
2021/07/20 01:52:54;;;;;;;0.00;0.00;;;;;;;23.18;53.58;98205.81;5012642;28;20101;-75
2021/07/20 01:55:22;;;;;;;0.10;0.10;;;;;;;23.22;53.62;98205.84;5012422;28;20091;-75
2021/07/20 01:57:47;;;;;;;0.00;0.00;;;;;;;23.21;52.94;98195.31;5012353;28;20077;-75
2021/07/20 02:00:17;;;;;;;0.00;0.00;;;;;;;23.20;52.75;98207.38;5012799;28;20030;-75
2021/07/20 02:10:50;;;;;;;0.03;0.03;;;;;;;23.01;53.58;98215.44;5012366;28;20033;-75
2021/07/20 02:13:16;;;;;;;0.05;0.05;;;;;;;22.97;53.44;98213.84;5012388;28;20655;-75
2021/07/20 02:15:46;;;;;;;0.10;0.10;;;;;;;22.96;53.34;98212.25;5011761;28;20026;-75
2021/07/20 02:18:13;;;;;;;0.10;0.10;;;;;;;22.92;53.39;98212.25;5012017;28;20059;-76
2021/07/20 02:20:42;;;;;;;0.05;0.05;;;;;;;22.92;53.69;98208.75;5009969;28;20099;-75
2021/07/20 02:23:08;;;;;;;0.10;0.10;;;;;;;22.90;53.49;98211.06;5011913;28;20021;-75
2021/07/20 02:25:35;;;;;;;0.10;0.10;;;;;;;22.86;53.45;98217.28;5011506;28;20053;-75
2021/07/20 02:28:04;;;;;;;0.00;0.00;;;;;;;22.88;53.50;98219.63;5011832;28;20030;-76
2021/07/20 02:30:31;;;;;;;0.00;0.00;;;;;;;22.83;53.85;98215.31;5010624;28;20021;-75
2021/07/20 02:32:59;;;;;;;0.10;0.10;;;;;;;22.81;53.67;98208.66;5012288;28;20046;-75
2021/07/20 02:35:26;;;;;;;0.10;0.10;;;;;;;22.74;53.62;98214.84;5011659;28;20022;-76
2021/07/20 02:37:53;;;;;;;0.00;0.00;;;;;;;22.72;53.90;98211.72;5010758;28;20042;-75
2021/07/20 02:40:25;;;;;;;0.00;0.00;;;;;;;22.72;53.42;98209.00;5011350;28;20029;-76
2021/07/20 02:42:53;;;;;;;0.10;0.10;;;;;;;22.69;53.58;98215.19;5012034;28;20038;-76
2021/07/20 02:45:19;;;;;;;0.10;0.10;;;;;;;22.65;53.56;98225.28;5011830;28;20057;-75
2021/07/20 02:47:47;;;;;;;0.10;0.10;;;;;;;22.66;53.68;98221.41;5012007;28;20037;-75
2021/07/20 02:50:15;;;;;;;0.00;0.00;;;;;;;22.68;53.53;98224.53;5010408;28;20108;-74
2021/07/20 02:52:45;;;;;;;0.00;0.00;;;;;;;22.68;53.32;98227.28;5011450;28;20049;-74
2021/07/20 02:55:13;;;;;;;0.00;0.00;;;;;;;22.66;53.32;98229.59;5011514;28;20026;-74
2021/07/20 02:57:41;;;;;;;0.10;0.10;;;;;;;22.69;53.09;98231.53;5010179;28;20025;-75
2021/07/20 03:00:11;;;;;;;0.10;0.10;;;;;;;22.66;53.21;98232.31;5010214;28;20401;-75
2021/07/20 03:02:40;;;;;;;0.10;0.10;;;;;;;22.67;53.25;98237.38;5011269;28;20107;-74
2021/07/20 03:05:06;;;;;;;0.10;0.10;;;;;;;22.66;53.20;98241.25;5011493;28;20026;-74
2021/07/20 03:07:34;;;;;;;0.10;0.10;;;;;;;22.67;53.34;98242.06;5011231;28;20033;-75
2021/07/20 03:10:01;;;;;;;0.00;0.00;;;;;;;22.64;53.53;98248.25;5011134;28;20029;-75
2021/07/20 03:12:29;;;;;;;0.10;0.10;;;;;;;22.62;53.38;98236.94;5011191;28;20053;-75
2021/07/20 03:14:58;;;;;;;0.32;0.32;;;;;;;22.66;53.36;98240.47;5011244;28;20029;-75
2021/07/20 03:17:26;;;;;;;0.10;0.10;;;;;;;22.76;52.75;98249.91;5010837;28;20040;-74
2021/07/20 03:19:53;;;;;;;0.00;0.00;;;;;;;22.83;52.84;98250.75;5011541;28;20087;-75
2021/07/20 03:22:23;;;;;;;0.00;0.00;;;;;;;22.98;52.73;98246.16;5011291;28;20033;-75
2021/07/20 03:24:50;;;;;;;0.10;0.10;;;;;;;23.14;51.56;98243.19;5011102;28;20179;-75
2021/07/20 03:27:16;;;;;;;1.30;0.20;;;;;;;23.31;51.48;98255.41;5011044;28;20236;-75
2021/07/20 03:29:43;;;;;;;0.10;0.10;;;;;;;23.49;51.44;98252.75;5011032;28;20201;-74
2021/07/20 03:32:13;;;;;;;0.10;0.10;;;;;;;23.74;50.43;98254.81;5012015;28;20100;-73
2021/07/20 03:34:41;;;;;;;0.10;0.10;;;;;;;24.01;49.94;98254.56;5015094;28;20061;-73
2021/07/20 03:37:07;;;;;;;0.10;0.10;;;;;;;24.28;49.24;98249.53;5015122;28;20038;-73
2021/07/20 03:39:35;;;;;;;0.03;0.03;;;;;;;24.63;48.36;98266.34;5014785;28;20049;-73
2021/07/20 03:42:01;;;;;;;0.10;0.10;;;;;;;24.97;47.38;98263.25;5015023;28;20062;-73
2021/07/20 03:44:29;;;;;;;0.00;0.00;;;;;;;25.33;46.20;98265.94;5014811;28;20125;-75
2021/07/20 03:46:56;;;;;;;0.00;0.00;;;;;;;25.68;45.67;98267.06;5015018;28;20037;-76
2021/07/20 03:49:23;;;;;;;0.00;0.00;;;;;;;26.07;45.03;98262.59;5013620;28;20120;-75
2021/07/20 03:51:49;;;;;;;0.10;0.10;;;;;;;26.48;44.27;98266.66;5014631;28;20022;-77
2021/07/20 03:54:15;;;;;;;0.00;0.00;;;;;;;26.87;43.15;98265.59;5014812;28;20034;-77
2021/07/20 03:56:41;;;;;;;0.00;0.00;;;;;;;27.23;42.52;98273.50;5014842;28;20421;-78
2021/07/20 03:59:08;;;;;;;0.00;0.00;;;;;;;27.62;41.90;98271.53;5014782;28;20520;-79
2021/07/20 04:01:36;;;;;;;0.00;0.00;;;;;;;28.02;40.81;98271.06;5013266;28;20026;-77
2021/07/20 04:04:06;;;;;;;0.00;0.00;;;;;;;28.42;40.57;98265.81;5014698;28;20112;-76
2021/07/20 04:06:33;;;;;;;0.00;0.00;;;;;;;28.83;39.92;98264.03;5015176;28;20025;-78
2021/07/20 04:08:59;;;;;;;0.00;0.00;;;;;;;29.29;39.26;98259.66;5013622;28;20092;-78
2021/07/20 04:11:25;;;;;;;0.00;0.00;;;;;;;29.74;38.38;98255.69;5013105;28;20029;-76
2021/07/20 04:13:52;;;;;;;0.00;0.00;;;;;;;30.12;37.79;98252.53;5013223;28;20512;-76
2021/07/20 04:16:19;;;;;;;0.00;0.00;;;;;;;30.54;37.22;98252.03;5020272;28;20033;-75
2021/07/20 04:18:44;;;;;;;0.00;0.00;;;;;;;30.89;36.76;98259.84;5064831;28;20029;-75
2021/07/20 04:21:10;;;;;;;0.00;0.00;;;;;;;31.32;36.04;98255.19;5034067;28;20033;-77
2021/07/20 04:23:36;;;;;;;0.00;0.00;;;;;;;31.68;35.36;98252.25;5032517;28;20167;-77
2021/07/20 04:26:03;;;;;;;0.00;0.00;;;;;;;32.04;34.75;98247.63;5033294;28;20057;-77
2021/07/20 04:28:29;;;;;;;0.00;0.00;;;;;;;32.39;33.92;98258.84;5031362;28;20548;-76
2021/07/20 04:30:57;;;;;;;0.10;0.10;;;;;;;32.69;33.77;98260.25;5061306;28;20148;-78
2021/07/20 04:33:31;;;;;;;0.00;0.00;;;;;;;32.94;33.50;98255.88;5012695;28;20026;-79
2021/07/20 04:35:59;;;;;;;0.00;0.00;;;;;;;33.24;32.85;98250.13;5012479;28;20076;-79
2021/07/20 04:38:26;;;;;;;0.20;0.20;;;;;;;33.55;32.84;98255.78;5012620;28;20543;-79
2021/07/20 04:40:52;;;;;;;0.10;0.10;;;;;;;33.83;32.36;98261.50;5012668;28;20512;-79
2021/07/20 04:43:18;;;;;;;0.00;0.00;;;;;;;34.09;32.30;98264.09;5012128;28;20032;-79
2021/07/20 04:45:45;;;;;;;0.00;0.00;;;;;;;34.40;31.89;98258.53;5012136;28;20030;-79
2021/07/20 04:48:16;;;;;;;0.05;0.05;;;;;;;34.66;31.51;98263.09;5045439;28;20473;-79
2021/07/20 04:50:42;;;;;;;0.00;0.00;;;;;;;34.93;31.06;98263.13;5012333;28;20123;-79
2021/07/20 04:53:13;;;;;;;0.00;0.00;;;;;;;35.24;30.63;98264.22;5012500;28;20032;-80
2021/07/20 04:55:40;;;;;;;0.13;0.10;;;;;;;35.52;30.56;98259.47;5012075;28;20052;-80
2021/07/20 04:58:06;;;;;;;0.00;0.00;;;;;;;35.71;30.11;98262.97;5012486;28;20030;-80
2021/07/20 05:00:33;;;;;;;0.00;0.00;;;;;;;35.99;29.95;98265.69;5012057;28;20492;-80
2021/07/20 05:03:01;;;;;;;0.00;0.00;;;;;;;36.18;29.68;98262.81;5012339;28;20505;-79
2021/07/20 05:05:30;;;;;;;0.00;0.00;;;;;;;36.37;29.23;98269.09;5012187;28;20415;-80
2021/07/20 05:07:58;;;;;;;0.20;0.20;;;;;;;36.55;29.35;98271.03;5013276;28;20022;-79
2021/07/20 05:10:24;;;;;;;0.08;0.08;;;;;;;36.73;29.06;98283.31;5011862;28;20065;-79
2021/07/20 05:12:50;;;;;;;0.45;0.43;;;;;;;36.82;29.10;98277.69;5011824;28;20077;-79
2021/07/20 05:15:17;;;;;;;0.00;0.00;;;;;;;36.93;28.69;98282.75;5012057;28;20026;-79
2021/07/20 05:17:44;;;;;;;0.00;0.00;;;;;;;37.07;28.70;98284.03;5012019;28;20374;-79
2021/07/20 05:20:12;;;;;;;0.00;0.00;;;;;;;37.11;28.74;98290.97;5013481;28;20034;-80
2021/07/20 05:22:39;;;;;;;0.10;0.10;;;;;;;37.24;28.41;98293.47;5011737;28;20494;-79
2021/07/20 05:25:05;;;;;;;;;;;;;;;37.08;28.33;98300.25;5012202;28;20494;-79
2021/07/20 05:27:35;;;;;;;1.30;0.20;;;;;;;36.61;29.10;98299.00;5013385;28;19999;-79
2021/07/20 05:30:01;;;;;;;0.93;0.25;;;;;;;36.48;29.63;98304.81;5011856;28;20026;-79
2021/07/20 05:32:27;;;;;;;0.10;0.10;;;;;;;36.12;30.16;98303.66;5011831;28;20060;-79
2021/07/20 05:34:53;;;;;;;0.10;0.10;;;;;;;36.04;30.12;98314.38;5011515;28;20281;-80
2021/07/20 05:37:20;;;;;;;0.10;0.10;;;;;;;35.68;30.74;98313.19;5011798;28;20564;-79
2021/07/20 05:39:49;;;;;;;0.20;0.20;;;;;;;35.56;31.28;98306.56;5011327;28;20041;-79
2021/07/20 05:42:18;;;;;;;0.45;0.45;;;;;;;35.53;31.60;98299.91;5011702;28;20029;-80
2021/07/20 05:44:45;;;;;;;0.52;0.30;;;;;;;35.49;31.97;98301.31;5011387;28;20437;-80
2021/07/20 05:47:13;;;;;;;0.10;0.10;;;;;;;35.67;31.81;98304.06;5011379;28;20085;-80
2021/07/20 05:49:39;;;;;;;0.00;0.00;;;;;;;35.63;31.94;98306.22;5011385;28;20471;-80
2021/07/20 05:52:04;;;;;;;0.00;0.00;;;;;;;35.70;31.97;98313.50;5011580;28;20029;-80
2021/07/20 05:54:30;;;;;;;0.13;0.13;;;;;;;35.82;31.80;98311.78;5010380;28;20034;-80
2021/07/20 05:56:57;;;;;;;0.20;0.20;;;;;;;35.54;31.44;98314.59;5011078;28;20107;-80
2021/07/20 05:59:23;;;;;;;0.10;0.10;;;;;;;35.23;32.63;98321.03;5011473;28;20029;-80
2021/07/20 06:01:51;;;;;;;0.22;0.22;;;;;;;35.30;32.24;98317.94;5011019;28;20030;-80
2021/07/20 06:04:18;;;;;;;0.10;0.10;;;;;;;35.36;32.35;98309.78;5012616;28;20034;-81
2021/07/20 06:06:44;;;;;;;0.25;0.25;;;;;;;35.22;32.32;98314.72;5011021;28;20069;-80
2021/07/20 06:09:09;;;;;;;0.20;0.20;;;;;;;35.13;32.29;98320.25;5012251;28;20069;-81
2021/07/20 06:11:35;;;;;;;0.25;0.25;;;;;;;35.09;32.10;98312.06;5010960;28;20041;-81
2021/07/20 06:14:02;;;;;;;0.47;0.22;;;;;;;34.83;32.45;98316.31;5012156;28;20030;-81
2021/07/20 06:16:28;;;;;;;0.63;0.63;;;;;;;34.77;33.18;98319.72;5011016;28;20026;-81
2021/07/20 06:18:54;;;;;;;0.20;0.20;;;;;;;34.70;33.37;98325.56;5010876;28;20033;-81
2021/07/20 06:21:22;;;;;;;0.32;0.32;;;;;;;34.72;32.90;98317.53;5011003;28;20786;-80
2021/07/20 06:23:49;;;;;;;0.17;0.17;;;;;;;34.65;32.96;98322.63;5010620;28;20037;-81
2021/07/20 06:26:18;;;;;;;;;;;;;;;34.64;33.08;98321.84;5011066;28;20081;-80
2021/07/20 06:28:45;;;;;;;0.10;0.10;;;;;;;34.57;33.47;98322.13;5010717;28;19963;-80
2021/07/20 06:31:11;;;;;;;0.15;0.15;;;;;;;34.57;33.31;98320.13;5010892;28;20233;-81
2021/07/20 06:33:38;;;;;;;0.10;0.10;;;;;;;34.44;33.63;98323.00;5011839;28;20160;-81
2021/07/20 06:36:04;;;;;;;0.10;0.10;;;;;;;34.31;33.74;98316.75;5010467;28;20029;-81
2021/07/20 06:38:32;;;;;;;0.65;0.65;;;;;;;34.07;33.96;98310.94;5010606;28;20061;-80
2021/07/20 06:40:58;;;;;;;0.65;0.65;;;;;;;33.89;34.47;98317.94;5010467;28;20108;-80
2021/07/20 06:43:24;;;;;;;0.55;0.20;;;;;;;33.64;35.00;98313.25;5010756;28;20080;-80
2021/07/20 06:45:50;;;;;;;0.60;0.60;;;;;;;33.55;34.97;98321.53;5010193;28;20033;-81
2021/07/20 06:48:19;;;;;;;0.93;0.20;;;;;;;33.41;35.33;98320.03;5011011;28;20056;-81
2021/07/20 06:50:47;;;;;;;0.13;0.13;;;;;;;33.28;35.48;98320.81;5010459;28;20034;-81
2021/07/20 06:53:12;;;;;;;0.10;0.10;;;;;;;33.19;35.71;98315.19;5010982;28;20506;-81
2021/07/20 06:55:46;;;;;;;0.50;0.50;;;;;;;33.05;35.98;98320.00;5010849;28;20030;-80
2021/07/20 06:58:13;;;;;;;0.10;0.10;;;;;;;32.88;35.99;98316.59;5010762;28;20026;-80
2021/07/20 07:00:41;;;;;;;0.47;0.47;;;;;;;32.89;36.16;98312.59;5010380;28;20128;-80
2021/07/20 07:03:09;;;;;;;0.05;0.05;;;;;;;32.81;36.42;98313.28;5010480;28;20474;-80
2021/07/20 07:05:35;;;;;;;0.55;0.55;;;;;;;32.71;36.72;98321.50;5010128;28;20045;-81
2021/07/20 07:08:02;;;;;;;0.32;0.32;;;;;;;32.50;37.34;98309.09;5010299;28;20026;-81
2021/07/20 07:10:28;;;;;;;0.10;0.10;;;;;;;32.35;37.39;98316.28;5011428;28;20041;-80
2021/07/20 07:12:55;;;;;;;2.03;0.63;;;;;;;32.25;37.80;98316.16;5009765;28;20034;-81
2021/07/20 07:15:21;;;;;;;;;;;;;;;32.22;37.88;98317.03;5010545;28;20041;-80
2021/07/20 07:17:48;;;;;;;0.40;0.25;;;;;;;31.99;38.17;98306.25;5010222;28;19917;-80
2021/07/20 07:20:18;;;;;;;1.17;0.73;;;;;;;31.85;37.97;98312.97;5010359;28;20481;-80
2021/07/20 07:22:44;;;;;;;0.47;0.47;;;;;;;31.80;38.32;98311.53;5009932;28;20116;-80
2021/07/20 07:25:11;;;;;;;0.10;0.10;;;;;;;31.70;38.47;98318.13;5010078;28;20077;-80
2021/07/20 07:27:42;;;;;;;0.25;0.25;;;;;;;31.64;38.43;98312.34;5009906;28;20124;-81
2021/07/20 07:30:08;;;;;;;0.20;0.20;;;;;;;31.52;38.97;98302.78;5010061;28;20038;-80
2021/07/20 07:32:36;;;;;;;0.52;0.52;;;;;;;31.42;39.44;98301.88;5010174;28;20109;-81
2021/07/20 07:35:01;;;;;;;0.20;0.20;;;;;;;31.29;39.91;98306.56;5009903;28;20053;-80
2021/07/20 07:37:28;;;;;;;0.13;0.13;;;;;;;31.21;40.14;98303.19;5010173;28;20029;-80
2021/07/20 07:39:58;;;;;;;1.05;0.55;;;;;;;31.08;40.30;98314.19;5009886;28;20030;-80
2021/07/20 07:42:24;;;;;;;0.60;0.60;;;;;;;30.97;40.41;98308.91;5010122;28;20092;-80
2021/07/20 07:44:51;;;;;;;0.65;0.65;;;;;;;31.00;40.67;98315.56;5009708;28;20452;-80
2021/07/20 07:47:17;;;;;;;0.57;0.57;;;;;;;30.96;40.56;98315.63;5009771;28;20026;-81
2021/07/20 07:49:44;;;;;;;0.55;0.55;;;;;;;30.98;39.70;98315.19;5010003;28;20034;-80
2021/07/20 07:52:12;;;;;;;0.30;0.30;;;;;;;30.97;40.43;98316.44;5011373;28;20026;-80
2021/07/20 07:54:39;;;;;;;0.40;0.40;;;;;;;30.93;40.38;98315.72;5009653;28;20038;-81
2021/07/20 07:57:05;;;;;;;1.52;0.75;;;;;;;30.93;40.43;98312.97;5009984;28;20062;-81
2021/07/20 07:59:32;;;;;;;0.75;0.35;;;;;;;30.92;40.34;98309.44;5009963;28;20033;-81
2021/07/20 08:02:01;;;;;;;0.40;0.40;;;;;;;30.84;40.14;98321.09;5009466;28;20050;-81
2021/07/20 08:04:28;;;;;;;0.63;0.60;;;;;;;30.80;40.60;98315.66;5009821;28;20108;-81
2021/07/20 08:06:55;;;;;;;0.43;0.43;;;;;;;30.80;40.54;98304.63;5010820;28;20030;-79
2021/07/20 08:09:23;;;;;;;0.20;0.20;;;;;;;30.82;40.89;98308.50;5009425;28;20042;-81
2021/07/20 08:11:50;;;;;;;0.20;0.20;;;;;;;30.84;40.38;98307.28;5009428;28;20565;-81
2021/07/20 08:14:16;;;;;;;1.33;0.63;;;;;;;30.92;40.44;98301.16;5009792;28;20036;-81
2021/07/20 08:16:47;;;;;;;0.57;0.57;;;;;;;30.97;40.02;98308.16;5009619;28;20355;-81
2021/07/20 08:19:15;;;;;;;2.72;0.20;;;;;;;30.77;39.96;98303.50;5012341;28;20029;-80
2021/07/20 08:21:42;;;;;;;0.30;0.30;;;;;;;30.80;40.90;98308.13;5013722;28;20045;-80
2021/07/20 08:24:08;;;;;;;0.30;0.30;;;;;;;30.77;40.63;98313.75;5013601;28;20069;-80
2021/07/20 08:26:43;;;;;;;0.30;0.30;;;;;;;30.76;40.33;98298.38;5013289;28;20046;-81
2021/07/20 08:29:11;;;;;;;0.20;0.20;;;;;;;30.84;40.19;98293.50;5013109;28;20022;-80
2021/07/20 08:31:43;;;;;;;0.65;0.43;;;;;;;30.95;39.57;98300.28;5013136;28;20034;-81
2021/07/20 08:34:11;;;;;;;0.10;0.10;;;;;;;30.94;40.09;98300.72;5013079;28;20030;-82
2021/07/20 08:36:40;;;;;;;0.00;0.00;;;;;;;30.85;39.70;98304.09;5013913;28;20545;-81
2021/07/20 08:39:08;;;;;;;0.13;0.13;;;;;;;30.85;40.49;98298.56;5013203;28;20121;-81
2021/07/20 08:42:08;;;;;;;0.45;0.45;;;;;;;30.90;39.61;98292.53;5014449;28;20493;-81
2021/07/20 08:45:03;;;;;;;0.20;0.20;;;;;;;30.87;39.91;98295.38;5013228;28;20033;-82
2021/07/20 08:47:47;;;;;;;0.00;0.00;;;;;;;30.86;40.42;98289.09;5013057;28;20022;-81
2021/07/20 08:50:28;;;;;;;0.13;0.13;;;;;;;30.88;39.85;98281.13;5012938;28;20400;-82
2021/07/20 08:53:17;;;;;;;0.00;0.00;;;;;;;30.88;39.47;98280.38;5013079;28;20026;-82
2021/07/20 08:55:44;;;;;;;0.38;0.38;;;;;;;30.98;38.83;98285.63;5012542;28;20034;-81
2021/07/20 08:58:29;;;;;;;0.25;0.25;;;;;;;31.01;37.85;98289.50;5014471;28;20064;-81
2021/07/20 09:01:14;;;;;;;0.10;0.10;;;;;;;30.98;39.21;98291.13;5012921;28;20054;-80
2021/07/20 09:04:02;;;;;;;0.20;0.20;;;;;;;31.07;38.55;98290.53;5012580;28;20026;-81
2021/07/20 09:06:34;;;;;;;0.10;0.10;;;;;;;31.04;38.94;98290.59;5012719;28;20083;-80
2021/07/20 09:09:07;;;;;;;0.08;0.08;;;;;;;31.11;38.74;98293.22;5012439;28;20033;-81
2021/07/20 09:11:57;;;;;;;0.25;0.25;;;;;;;31.14;38.24;98287.59;5012739;28;20492;-81
2021/07/20 09:14:49;;;;;;;0.10;0.10;;;;;;;31.10;38.63;98286.13;5012696;28;20346;-80
2021/07/20 09:17:29;;;;;;;0.03;0.03;;;;;;;31.17;38.72;98294.25;5012059;28;20095;-79
2021/07/20 09:20:19;;;;;;;1.00;0.77;;;;;;;31.19;38.76;98285.50;5012235;28;20057;-80
2021/07/20 09:22:55;;;;;;;0.20;0.20;;;;;;;31.19;38.46;98288.28;5013442;28;20037;-80
2021/07/20 09:25:39;;;;;;;0.22;0.22;;;;;;;31.21;37.56;98283.88;5011921;28;20519;-80
2021/07/20 09:28:28;;;;;;;0.75;0.75;;;;;;;31.23;37.59;98283.44;5011805;28;20030;-80
2021/07/20 09:30:55;;;;;;;0.20;0.20;;;;;;;31.29;37.95;98292.75;5012953;28;20560;-81
2021/07/20 09:33:36;;;;;;;0.00;0.00;;;;;;;31.39;37.45;98294.44;5012658;28;20033;-82
2021/07/20 09:36:34;;;;;;;0.00;0.00;;;;;;;31.37;36.93;98279.53;5011719;28;20132;-82
2021/07/20 09:39:52;;;;;;;0.20;0.10;;;;;;;31.35;36.89;98279.16;5021501;28;20179;-80
2021/07/20 09:42:42;;;;;;;0.20;0.20;;;;;;;31.25;37.61;98279.03;5012389;28;20064;-80
2021/07/20 09:45:15;;;;;;;2.35;1.17;;;;;;;31.33;37.22;98293.44;5011725;28;20033;-81
2021/07/20 09:47:45;;;;;;;0.10;0.10;;;;;;;31.37;36.98;98274.00;5012862;28;20042;-80
2021/07/20 09:50:18;;;;;;;3.80;0.43;;;;;;;31.39;36.61;98283.41;5011662;28;20073;-80
2021/07/20 09:53:20;;;;;;;0.10;0.10;;;;;;;31.43;35.95;98273.03;5012883;28;20061;-81
2021/07/20 09:56:18;;;;;;;0.32;0.32;;;;;;;31.39;36.03;98264.06;5011074;28;20088;-80
2021/07/20 09:58:57;;;;;;;0.43;0.43;;;;;;;31.41;35.68;98260.88;5018054;28;20448;-81
2021/07/20 10:01:42;;;;;;;0.57;0.57;;;;;;;31.49;36.29;98269.75;5011604;28;20026;-82
2021/07/20 10:04:15;;;;;;;0.35;0.35;;;;;;;31.52;35.98;98269.63;5011212;28;20030;-82
2021/07/20 10:06:56;;;;;;;0.10;0.10;;;;;;;31.60;35.00;98256.38;5011363;28;20022;-82
2021/07/20 10:09:41;;;;;;;0.28;0.28;;;;;;;31.70;34.95;98260.88;5011180;28;20572;-81
2021/07/20 10:12:12;;;;;;;0.10;0.10;;;;;;;31.76;35.46;98263.84;5010994;28;20025;-80
2021/07/20 10:15:12;;;;;;;0.30;0.30;;;;;;;31.80;34.73;98258.22;5012123;28;20034;-80
2021/07/20 10:18:01;;;;;;;0.10;0.10;;;;;;;31.84;34.98;98253.38;5011136;28;20030;-80
2021/07/20 10:20:45;;;;;;;0.00;0.00;;;;;;;31.85;35.55;98249.38;5010919;28;20064;-80
2021/07/20 10:23:39;;;;;;;0.00;0.00;;;;;;;31.90;35.64;98246.09;5011064;28;20439;-80
2021/07/20 10:26:09;;;;;;;0.13;0.13;;;;;;;31.89;35.19;98244.53;5010581;28;20061;-81
2021/07/20 10:28:55;;;;;;;0.10;0.10;;;;;;;31.96;35.11;98241.56;5010848;28;20103;-81
2021/07/20 10:31:29;;;;;;;0.08;0.08;;;;;;;32.05;35.20;98243.66;5010955;28;20030;-80
2021/07/20 10:34:02;;;;;;;0.20;0.20;;;;;;;32.08;33.78;98243.56;5010463;28;20026;-81
2021/07/20 10:36:50;;;;;;;0.55;0.40;;;;;;;32.05;33.68;98236.13;5012036;28;20459;-81
2021/07/20 10:39:21;;;;;;;0.15;0.15;;;;;;;32.01;34.37;98227.19;5010595;28;20052;-80
2021/07/20 10:41:58;;;;;;;0.25;0.25;;;;;;;32.04;34.52;98231.84;5010120;28;20033;-81
2021/07/20 10:44:41;;;;;;;;;;;;;;;31.96;34.26;98233.25;5011181;28;20092;-80
2021/07/20 10:47:08;;;;;;;0.52;0.52;;;;;;;31.95;34.51;98228.19;5010447;28;20011;-80
2021/07/20 10:49:55;;;;;;;1.95;1.38;;;;;;;31.91;34.11;98226.28;5010561;28;20116;-81
2021/07/20 10:52:20;;;;;;;0.47;0.47;;;;;;;31.91;34.90;98223.53;5010458;28;20508;-80
2021/07/20 10:54:55;;;;;;;0.20;0.20;;;;;;;31.97;34.81;98223.75;5010169;28;20037;-80
2021/07/20 10:57:27;;;;;;;0.22;0.22;;;;;;;31.94;34.85;98213.56;5012005;28;20390;-81
2021/07/20 11:00:10;;;;;;;0.00;0.00;;;;;;;31.90;33.75;98213.69;5010284;28;20033;-79
2021/07/20 11:02:48;;;;;;;1.45;0.30;;;;;;;31.87;34.52;98209.03;5010301;28;20168;-80
2021/07/20 11:05:15;;;;;;;0.20;0.20;;;;;;;31.88;34.79;98201.50;5010242;28;20034;-80
2021/07/20 11:07:45;;;;;;;0.00;0.00;;;;;;;31.85;35.36;98208.69;5010433;28;20456;-81
2021/07/20 11:10:19;;;;;;;0.32;0.32;;;;;;;31.80;35.51;98205.69;5010129;28;20036;-79
2021/07/20 11:12:50;;;;;;;0.50;0.50;;;;;;;31.76;35.69;98206.59;5043291;28;20030;-79
2021/07/20 11:15:16;;;;;;;1.55;0.55;;;;;;;31.76;34.98;98203.84;5010201;28;20029;-80
2021/07/20 11:17:44;;;;;;;0.35;0.35;;;;;;;31.80;35.71;98203.72;5011596;28;20120;-80
2021/07/20 11:20:12;;;;;;;;;;;;;;;31.81;35.09;98199.75;5010540;28;20073;-80
2021/07/20 11:22:40;;;;;;;0.35;0.35;;;;;;;31.85;36.06;98202.38;5010085;28;19913;-80
2021/07/20 11:25:08;;;;;;;0.00;0.00;;;;;;;31.91;35.71;98200.66;5009640;28;20054;-81
2021/07/20 11:27:39;;;;;;;0.10;0.10;;;;;;;31.98;35.81;98189.34;5010008;28;20028;-81
2021/07/20 11:30:09;;;;;;;0.05;0.05;;;;;;;32.11;35.35;98186.56;5010009;28;20545;-81
2021/07/20 11:32:36;;;;;;;0.00;0.00;;;;;;;32.19;35.34;98195.41;5010026;28;20052;-81
2021/07/20 11:35:09;;;;;;;0.38;0.38;;;;;;;32.18;34.92;98193.88;5009647;28;20184;-80
2021/07/20 11:37:39;;;;;;;0.15;0.15;;;;;;;32.12;33.83;98190.91;5009950;28;20026;-80
2021/07/20 11:40:08;;;;;;;1.08;0.45;;;;;;;32.11;34.15;98188.59;5010735;28;20041;-80
2021/07/20 11:42:53;;;;;;;0.90;0.90;;;;;;;32.13;34.21;98191.66;5010012;28;20026;-81
2021/07/20 11:45:20;;;;;;;0.10;0.10;;;;;;;32.19;34.58;98189.88;5010240;28;20034;-81
2021/07/20 11:47:53;;;;;;;0.20;0.20;;;;;;;32.26;34.47;98181.38;5010278;28;20029;-81
2021/07/20 11:50:24;;;;;;;0.13;0.13;;;;;;;32.36;34.50;98187.78;5010160;28;20022;-81
2021/07/20 11:52:49;;;;;;;0.38;0.38;;;;;;;32.48;34.07;98191.75;5010511;28;20038;-81
2021/07/20 11:55:36;;;;;;;0.00;0.00;;;;;;;32.59;34.04;98192.16;5013934;28;20102;-81